• Join FlightAware (Why Join?)
  • Login
  • US Flag 
04:46AM EDT


 

Airport Tracker/Info


-or-


 

Live Flight TrackerFlight Track Log ✈ DAL6234 ✈ 17-Apr-2013 ✈ KLGA - KSYR

Flight Track Log - Related Links

Times and Time Zones

All times are in EDT time to prevent confusion due to time zone crossing. See the DAL6234 flight status page for this flight to view local times or setup timezone preferences in your user account.

Time Position Orientation Groundspeed Altitude Reporting Facility
EDT Latitude Longitude Course Direction KTS MPH feet Rate Location/Type
04:09PM 40.8000 -73.8500 27° Northeast 152 175 1,600  Level New York TRACON
04:10PM 40.8500 -73.8167 27° Northeast 200 230 4,100 2,520 Climbing New York TRACON
04:11PM 40.9000 -73.8500 333° Northwest 248 285 6,700 2,700 Climbing New York TRACON
04:12PM 40.9333 -73.9167 304° West 255 293 9,500 2,580 Climbing New York TRACON
04:13PM 40.9833 -74.0000 308° West 282 325 11,900 2,280 Climbing New York TRACON
04:14PM 41.0500 -74.0667 323° Northwest 325 374 14,100 2,040 Climbing New York TRACON
04:15PM 41.1333 -74.1333 329° Northwest 333 383 16,000 900 Climbing New York TRACON
04:16PM 41.1797 -74.2281 303° West 366 421 16,000  Level New York Center
04:17PM 41.1950 -74.3472 280° West 375 432 16,000  Level New York Center
04:18PM 41.2172 -74.5003 281° West 375 432 16,000  Level New York Center
04:19PM 41.2511 -74.6153 291° West 370 426 16,000 840 Level New York Center
04:21PM 41.3200 -74.7322 308° West 375 432 17,800 1,560 Climbing New York Center
04:21PM 41.3814 -74.8272 311° West 375 432 19,200 1,080 Climbing New York Center
04:22PM 41.4483 -74.9364 309° West 375 432 20,000 360 Climbing New York Center
04:24PM 41.5172 -75.0489 309° West 386 444 20,000  Level New York Center
04:25PM 41.5861 -75.1614 309° West 386 444 20,000  Level New York Center
04:25PM 41.6525 -75.2767 308° West 386 444 20,000  Level New York Center
04:27PM 41.7231 -75.3925 309° West 386 444 20,000  Level New York Center
04:28PM 41.7894 -75.5058 308° West 386 444 20,000  Level New York Center
04:28PM 41.8575 -75.6219 308° West 386 444 20,000  Level New York Center
04:29PM 41.9258 -75.7356 309° West 386 444 20,000 -900 Level New York Center
04:31PM 41.9994 -75.8639 308° West 393 452 18,200 -1,740 Descending New York Center
04:31PM 42.0672 -75.9781 309° West 393 452 16,600 -1,740 Descending New York Center
04:32PM 42.1314 -76.0867 309° West 382 440 14,800 -2,820 Descending New York Center
04:33PM 42.2253 -76.1278 342° North 342 394 11,000 -1,680 Descending New York Center
04:35PM 42.3192 -76.1186 North 349 402 11,500  Climbing New York Center
04:35PM 42.4183 -76.1078 North 376 433 11,000 -240 Descending Boston Center
04:36PM 42.5103 -76.0992 North 371 427 11,100  Climbing Boston Center
04:37PM 42.6150 -76.0856 North 375 432 11,000 -600 Descending Boston Center
04:38PM 42.7003 -76.0878 359° North 291 335 10,000 -1,500 Descending Boston Center
04:39PM 42.7792 -76.1008 353° North 263 303 8,000 -2,040 Descending Boston Center
04:40PM 42.8514 -76.0569 24° Northeast 262 302 5,900 -1,740 Descending Boston Center
04:41PM 42.9128 -76.0267 20° North 241 277 4,600 -960 Descending Boston Center
04:42PM 42.9719 -76.0072 14° North 213 245 4,000 -720 Descending Boston Center
04:43PM 43.0283 -76.0050 North 194 223 3,200 -1,080 Descending Boston Center
04:44PM 43.0742 -76.0047 360° North 177 204 2,000 -900 Descending Boston Center
04:45PM 43.1108 -76.0325 331° Northwest 154 177 1,500 -660 Descending Boston Center
04:46PM 43.1089 -76.0892 267° West 130 150 700 -840 Descending Boston Center